Terminal Aerodrome Forecast
Issued by NWS

Home | Current Version | Previous Version | Text Only | Print | Product List | Glossary On
Versions: 1 2 3 4 5 6 7 8 9 10 11 12 13 14 15 16 17 18 19 20
903
FTUS41 KBTV 031131
TAFRUT
TAF
KRUT 031131Z 0312/0412 30009G16KT P6SM VCSH SCT028 OVC040
      TEMPO 0312/0316 -SHRASN BKN028
     FM031600 31009G16KT P6SM OVC040
     FM032300 31006KT P6SM OVC040=

USA.gov is the U.S. government's official web portal to all federal, state and local government web resources and services.